Time;durP1;ratioP1;P1;durP2;ratioP2;P2;SDS_P1;SDS_P2;PMS_P1;PMS_P2;Temp;Humidity;BMP_temperature;BMP_pressure;BME280_temperature;BME280_humidity;BME280_pressure;Samples;Min_cycle;Max_cycle;Signal;HPM_P1;HPM_P2
2021/08/22 00:01:49;;;;;;;8.93;7.18;;;18.90;99.90;;;;;;5042687;28;20203;-73
2021/08/22 00:04:15;;;;;;;7.57;6.45;;;18.80;99.90;;;;;;5050888;28;20201;-73
2021/08/22 00:06:42;;;;;;;7.03;6.10;;;18.70;99.90;;;;;;5041179;28;20204;-72
2021/08/22 00:09:09;;;;;;;7.90;7.03;;;18.70;99.90;;;;;;5035638;28;20680;-72
2021/08/22 00:11:36;;;;;;;9.77;7.63;;;18.50;99.90;;;;;;5030478;28;20265;-73
2021/08/22 00:14:03;;;;;;;10.07;7.57;;;18.20;99.90;;;;;;5041562;28;20688;-73
2021/08/22 00:16:31;;;;;;;8.73;7.43;;;18.10;99.90;;;;;;5046958;28;20672;-72
2021/08/22 00:18:58;;;;;;;8.02;6.90;;;18.10;99.90;;;;;;5038887;28;20199;-72
2021/08/22 00:21:25;;;;;;;8.43;6.82;;;18.20;99.90;;;;;;5034855;28;20703;-73
2021/08/22 00:23:51;;;;;;;9.90;6.90;;;18.20;99.90;;;;;;5048522;28;20194;-73
2021/08/22 00:26:18;;;;;;;8.30;7.05;;;18.20;99.90;;;;;;5048617;28;20571;-73
2021/08/22 00:28:45;;;;;;;8.15;7.13;;;18.20;99.90;;;;;;5053602;28;20202;-72
2021/08/22 00:31:12;;;;;;;8.60;6.75;;;18.10;99.90;;;;;;5041318;28;20200;-73
2021/08/22 00:33:40;;;;;;;8.10;7.30;;;17.90;99.90;;;;;;5034397;28;20334;-73
2021/08/22 00:36:07;;;;;;;8.57;7.15;;;17.80;99.90;;;;;;5044468;28;20199;-73
2021/08/22 00:38:34;;;;;;;8.73;7.15;;;17.60;99.90;;;;;;5037331;28;20218;-73
2021/08/22 00:41:02;;;;;;;9.13;7.57;;;17.60;99.90;;;;;;5043737;28;20630;-73
2021/08/22 00:43:30;;;;;;;9.20;7.28;;;17.50;99.90;;;;;;5040382;28;20579;-73
2021/08/22 00:45:57;;;;;;;9.30;7.63;;;17.40;99.90;;;;;;5050513;28;20209;-72
2021/08/22 00:48:25;;;;;;;8.98;7.72;;;17.20;99.90;;;;;;5053518;28;20286;-73
2021/08/22 00:50:54;;;;;;;9.98;7.95;;;17.20;99.90;;;;;;5034432;28;20218;-72
2021/08/22 00:53:21;;;;;;;11.93;8.77;;;17.10;99.90;;;;;;5033833;28;20712;-73
2021/08/22 00:55:49;;;;;;;11.30;8.05;;;17.00;99.90;;;;;;5051241;28;20417;-72
2021/08/22 00:58:16;;;;;;;12.15;8.57;;;17.00;99.90;;;;;;5036663;28;20650;-73
2021/08/22 01:00:43;;;;;;;10.05;8.27;;;17.10;99.90;;;;;;5049243;28;20600;-73
2021/08/22 01:03:17;;;;;;;10.30;8.45;;;17.20;99.90;;;;;;5041990;28;20206;-72
2021/08/22 01:05:50;;;;;;;11.48;8.25;;;17.10;99.90;;;;;;5034012;28;20204;-73
2021/08/22 01:08:25;;;;;;;9.77;8.38;;;17.10;99.90;;;;;;5039402;28;20718;-73
2021/08/22 01:10:55;;;;;;;11.50;9.20;;;17.00;99.90;;;;;;5052371;28;20214;-73
2021/08/22 01:13:25;;;;;;;11.00;8.73;;;17.10;99.90;;;;;;5049308;28;20223;-73
2021/08/22 01:15:59;;;;;;;9.73;8.23;;;17.00;99.90;;;;;;5051997;28;20297;-73
2021/08/22 01:18:27;;;;;;;12.95;8.35;;;17.00;99.90;;;;;;5044851;28;20367;-73
2021/08/22 01:21:07;;;;;;;9.32;8.02;;;17.10;99.90;;;;;;5037141;28;20203;-72
2021/08/22 01:23:36;;;;;;;10.85;7.95;;;17.00;99.90;;;;;;5042369;28;20203;-72
2021/08/22 01:26:04;;;;;;;11.00;8.25;;;17.00;99.90;;;;;;5053096;28;20559;-73
2021/08/22 01:28:31;;;;;;;9.70;7.88;;;16.90;99.90;;;;;;5040850;28;20253;-73
2021/08/22 01:31:04;;;;;;;10.88;8.63;;;16.90;99.90;;;;;;5046576;28;20653;-73
2021/08/22 01:33:32;;;;;;;10.63;8.68;;;16.90;99.90;;;;;;5032878;28;20581;-73
2021/08/22 01:36:01;;;;;;;9.82;7.88;;;16.90;99.90;;;;;;5045226;28;20256;-73
2021/08/22 01:38:29;;;;;;;9.52;8.20;;;16.80;99.90;;;;;;5052283;28;20214;-73
2021/08/22 01:40:57;;;;;;;11.68;8.73;;;16.80;99.90;;;;;;5046690;28;20210;-72
2021/08/22 01:43:25;;;;;;;12.27;9.70;;;16.70;99.90;;;;;;5052478;28;20195;-72
2021/08/22 01:45:56;;;;;;;11.27;8.70;;;16.50;99.90;;;;;;5049708;28;20206;-73
2021/08/22 01:48:25;;;;;;;11.93;8.90;;;16.50;99.90;;;;;;5050778;28;20233;-73
2021/08/22 01:50:57;;;;;;;9.88;7.90;;;16.60;99.90;;;;;;5042967;28;20213;-72
2021/08/22 01:53:24;;;;;;;11.63;8.20;;;16.60;99.90;;;;;;5036643;28;20200;-73
2021/08/22 01:55:52;;;;;;;10.23;8.70;;;16.60;99.90;;;;;;5045661;28;20207;-73
2021/08/22 01:58:18;;;;;;;11.07;9.10;;;16.60;99.90;;;;;;5046957;28;20205;-73
2021/08/22 02:00:45;;;;;;;11.75;9.38;;;16.60;99.90;;;;;;5044145;28;20215;-73
2021/08/22 02:03:17;;;;;;;11.35;8.23;;;16.50;99.90;;;;;;5045771;28;20200;-73
2021/08/22 02:05:46;;;;;;;13.55;8.43;;;16.50;99.90;;;;;;5036755;28;20210;-73
2021/08/22 02:08:19;;;;;;;8.98;7.97;;;16.40;99.90;;;;;;5048408;28;20692;-72
2021/08/22 02:10:50;;;;;;;12.75;8.30;;;16.30;99.90;;;;;;5048697;28;20661;-73
2021/08/22 02:13:20;;;;;;;10.38;7.95;;;16.30;99.90;;;;;;5062928;28;20676;-72
2021/08/22 02:15:48;;;;;;;11.15;8.63;;;16.30;99.90;;;;;;5040505;28;20402;-72
2021/08/22 02:18:16;;;;;;;11.23;8.48;;;16.20;99.90;;;;;;5052371;28;20202;-73
2021/08/22 02:20:46;;;;;;;10.32;8.65;;;15.90;99.90;;;;;;5051557;28;20576;-73
2021/08/22 02:23:13;;;;;;;12.10;8.82;;;15.80;99.90;;;;;;5052388;28;20716;-72
2021/08/22 02:25:43;;;;;;;10.68;8.90;;;15.80;99.90;;;;;;5048014;28;20207;-73
2021/08/22 02:28:10;;;;;;;12.63;8.68;;;15.90;99.90;;;;;;5051742;28;20664;-73
2021/08/22 02:30:39;;;;;;;10.75;8.23;;;15.90;99.90;;;;;;5039409;28;20227;-73
2021/08/22 02:33:07;;;;;;;10.73;8.57;;;16.00;99.90;;;;;;5031788;28;20210;-73
2021/08/22 02:35:35;;;;;;;10.68;8.70;;;15.90;99.90;;;;;;5038104;28;20665;-73
2021/08/22 02:38:02;;;;;;;11.40;8.77;;;15.70;99.90;;;;;;5032891;28;20204;-73
2021/08/22 02:40:29;;;;;;;10.07;8.27;;;15.60;99.90;;;;;;5032285;28;20211;-72
2021/08/22 02:42:57;;;;;;;10.15;8.15;;;15.70;99.90;;;;;;5037385;28;20200;-73
2021/08/22 02:45:24;;;;;;;12.20;8.48;;;15.70;99.90;;;;;;5041378;28;20191;-73
2021/08/22 02:47:56;;;;;;;11.85;8.80;;;15.70;99.90;;;;;;5033659;28;20226;-73
2021/08/22 02:50:24;;;;;;;12.18;8.75;;;15.70;99.90;;;;;;5039206;28;20194;-73
2021/08/22 02:52:51;;;;;;;13.77;8.82;;;15.80;99.90;;;;;;5032127;28;20207;-72
2021/08/22 02:55:18;;;;;;;11.30;8.68;;;15.80;99.90;;;;;;5034740;28;20227;-72
2021/08/22 02:57:44;;;;;;;12.05;9.15;;;15.80;99.90;;;;;;5041372;28;20672;-73
2021/08/22 03:00:14;;;;;;;11.23;8.98;;;15.70;99.90;;;;;;5046327;28;20657;-73
2021/08/22 03:02:41;;;;;;;11.55;8.90;;;15.60;99.90;;;;;;5045961;28;20207;-72
2021/08/22 03:05:08;;;;;;;14.07;10.43;;;15.50;99.90;;;;;;5050988;28;20496;-73
2021/08/22 03:07:35;;;;;;;13.23;9.93;;;15.50;99.90;;;;;;5046932;28;20210;-73
2021/08/22 03:10:02;;;;;;;13.90;10.73;;;15.50;99.90;;;;;;5034742;28;20650;-72
2021/08/22 03:12:29;;;;;;;15.48;11.15;;;15.60;99.90;;;;;;5044185;28;20207;-73
2021/08/22 03:14:56;;;;;;;14.77;10.38;;;15.60;99.90;;;;;;5049934;28;20222;-73
2021/08/22 03:17:24;;;;;;;10.80;9.15;;;15.60;99.90;;;;;;5031288;28;20213;-73
2021/08/22 03:19:51;;;;;;;12.93;10.25;;;15.70;99.90;;;;;;5034148;28;20251;-73
2021/08/22 03:22:18;;;;;;;12.05;8.98;;;15.80;99.90;;;;;;5046895;28;20234;-73
2021/08/22 03:24:45;;;;;;;11.95;9.80;;;15.70;99.90;;;;;;5047769;28;20195;-73
2021/08/22 03:27:12;;;;;;;13.75;10.38;;;15.60;99.90;;;;;;5050711;28;20249;-72
2021/08/22 03:29:39;;;;;;;11.95;10.02;;;15.50;99.90;;;;;;5049152;28;20211;-73
2021/08/22 03:32:07;;;;;;;14.48;10.38;;;15.50;99.90;;;;;;5051417;28;20195;-72
2021/08/22 03:34:36;;;;;;;14.23;10.53;;;15.30;99.90;;;;;;5034504;28;20230;-72
2021/08/22 03:37:03;;;;;;;14.02;10.57;;;15.30;99.90;;;;;;5050697;28;20301;-72
2021/08/22 03:39:29;;;;;;;16.27;12.02;;;15.40;99.90;;;;;;5035419;28;20207;-72
2021/08/22 03:41:56;;;;;;;14.30;11.43;;;15.40;99.90;;;;;;5034743;28;20550;-72
2021/08/22 03:44:24;;;;;;;15.17;11.60;;;15.40;99.90;;;;;;5040480;28;20202;-75
2021/08/22 03:46:51;;;;;;;17.03;11.77;;;15.30;99.90;;;;;;5045177;28;20207;-72
2021/08/22 03:49:17;;;;;;;14.88;11.25;;;15.30;99.90;;;;;;5041451;28;20195;-72
2021/08/22 03:51:46;;;;;;;16.27;12.07;;;15.40;99.90;;;;;;5049328;28;20207;-72
2021/08/22 03:54:12;;;;;;;15.83;11.33;;;15.50;99.90;;;;;;5053217;28;20226;-73
2021/08/22 03:56:39;;;;;;;16.97;12.33;;;15.60;99.90;;;;;;5052867;28;20276;-72
2021/08/22 03:59:07;;;;;;;17.10;11.05;;;15.70;99.90;;;;;;5051131;28;20204;-73
2021/08/22 04:01:34;;;;;;;15.60;10.93;;;15.80;99.90;;;;;;5057725;23;20231;-71
2021/08/22 04:04:02;;;;;;;13.43;11.30;;;15.90;99.90;;;;;;5054701;28;20207;-74
2021/08/22 04:06:29;;;;;;;14.27;11.05;;;16.00;99.90;;;;;;5050645;28;20265;-74
2021/08/22 04:09:00;;;;;;;15.57;10.63;;;16.10;99.90;;;;;;5052130;28;20211;-75
2021/08/22 04:11:27;;;;;;;14.18;10.55;;;16.10;99.90;;;;;;5050513;28;20222;-75
2021/08/22 04:13:54;;;;;;;14.05;10.65;;;16.20;99.90;;;;;;5043870;28;20211;-73
2021/08/22 04:16:21;;;;;;;19.00;13.57;;;16.20;99.90;;;;;;5065407;28;20202;-72
2021/08/22 04:18:48;;;;;;;19.83;13.75;;;15.90;99.90;;;;;;5053916;28;20724;-72
2021/08/22 04:21:15;;;;;;;19.10;13.55;;;15.90;99.90;;;;;;5066416;28;20202;-72
2021/08/22 04:23:42;;;;;;;19.08;14.10;;;15.90;99.90;;;;;;5050952;28;20206;-72
2021/08/22 04:26:10;;;;;;;21.20;13.30;;;15.90;99.90;;;;;;5053823;28;20203;-72
2021/08/22 04:28:37;;;;;;;18.27;13.48;;;16.00;99.90;;;;;;5049701;28;20214;-73
2021/08/22 04:31:04;;;;;;;20.00;13.85;;;16.10;99.90;;;;;;5046414;28;20294;-72
2021/08/22 04:33:31;;;;;;;18.95;13.82;;;16.10;99.90;;;;;;5056263;28;20203;-74
2021/08/22 04:35:58;;;;;;;16.73;13.52;;;16.20;99.90;;;;;;5056021;28;20661;-72
2021/08/22 04:38:24;;;;;;;16.85;12.75;;;16.10;99.90;;;;;;5056299;28;20202;-72
2021/08/22 04:40:51;;;;;;;19.77;13.50;;;16.20;99.90;;;;;;5045494;28;20548;-71
2021/08/22 04:43:20;;;;;;;18.80;13.05;;;16.20;99.90;;;;;;5052725;28;20199;-71
2021/08/22 04:45:46;;;;;;;17.52;12.70;;;16.20;99.90;;;;;;5048907;28;20208;-71
2021/08/22 04:48:13;;;;;;;17.95;13.00;;;16.20;99.90;;;;;;5054986;28;20711;-72
2021/08/22 04:50:40;;;;;;;19.73;13.45;;;16.30;99.90;;;;;;5051678;28;20676;-72
2021/08/22 04:53:07;;;;;;;23.40;16.75;;;16.20;99.90;;;;;;5051230;28;20199;-71
2021/08/22 04:55:34;;;;;;;21.98;16.80;;;16.30;99.90;;;;;;5052644;28;20321;-72
2021/08/22 04:58:01;;;;;;;21.75;17.30;;;16.40;99.90;;;;;;5063596;28;20208;-72
2021/08/22 05:00:29;;;;;;;20.80;16.30;;;16.30;99.90;;;;;;5052505;28;20241;-72
2021/08/22 05:02:56;;;;;;;21.00;12.95;;;16.20;99.90;;;;;;5054091;28;20214;-72
2021/08/22 05:05:23;;;;;;;17.63;12.00;;;16.20;99.90;;;;;;5055337;28;20198;-72
2021/08/22 05:07:50;;;;;;;17.23;12.40;;;16.10;99.90;;;;;;5055020;28;20302;-72
2021/08/22 05:10:17;;;;;;;17.27;12.27;;;16.10;99.90;;;;;;5052314;28;20203;-72
2021/08/22 05:12:44;;;;;;;17.17;12.23;;;16.20;99.90;;;;;;5055315;28;20582;-72
2021/08/22 05:15:11;;;;;;;18.35;12.60;;;16.20;99.90;;;;;;5050776;28;20634;-72
2021/08/22 05:17:39;;;;;;;18.63;12.35;;;16.20;99.90;;;;;;5057280;28;20210;-72
2021/08/22 05:20:08;;;;;;;20.10;12.85;;;16.10;99.90;;;;;;5046024;28;20206;-72
2021/08/22 05:22:35;;;;;;;18.15;12.40;;;16.00;99.90;;;;;;5051830;28;20218;-72
2021/08/22 05:25:02;;;;;;;17.13;12.85;;;16.00;99.90;;;;;;5052494;28;20198;-72
2021/08/22 05:27:29;;;;;;;16.60;12.75;;;16.00;99.90;;;;;;5052210;28;20203;-71
2021/08/22 05:29:56;;;;;;;18.75;13.05;;;16.00;99.90;;;;;;5061638;28;20298;-73
2021/08/22 05:32:23;;;;;;;20.55;13.57;;;16.00;99.90;;;;;;5051964;28;20203;-73
2021/08/22 05:34:51;;;;;;;17.88;13.23;;;16.10;99.90;;;;;;5053998;28;20660;-72
2021/08/22 05:37:18;;;;;;;18.48;13.48;;;16.00;99.90;;;;;;5049840;28;20207;-73
2021/08/22 05:39:45;;;;;;;20.75;14.48;;;16.00;99.90;;;;;;5036249;28;20202;-72
2021/08/22 05:42:12;;;;;;;18.25;14.00;;;16.10;99.90;;;;;;5052660;28;20207;-72
2021/08/22 05:44:39;;;;;;;19.48;13.15;;;16.10;99.90;;;;;;5050226;28;20195;-72
2021/08/22 05:47:09;;;;;;;20.30;14.15;;;16.10;99.90;;;;;;5064133;28;20213;-72
2021/08/22 05:49:39;;;;;;;19.75;14.73;;;16.20;99.90;;;;;;5050062;28;20199;-72
2021/08/22 05:52:08;;;;;;;19.77;14.27;;;16.20;99.90;;;;;;5052499;28;20203;-72
2021/08/22 05:54:36;;;;;;;21.48;15.32;;;16.20;99.90;;;;;;5051320;28;20525;-73
2021/08/22 05:57:03;;;;;;;19.75;14.75;;;16.10;99.90;;;;;;5052786;28;20633;-73
2021/08/22 05:59:30;;;;;;;18.17;12.48;;;16.20;99.90;;;;;;5052442;28;20199;-73
2021/08/22 06:01:57;;;;;;;17.42;12.13;;;16.30;99.90;;;;;;5052279;28;20298;-74
2021/08/22 06:04:24;;;;;;;15.95;11.75;;;16.40;99.90;;;;;;5051909;28;20538;-73
2021/08/22 06:06:50;;;;;;;13.82;11.23;;;16.50;99.90;;;;;;5052221;28;20209;-73
2021/08/22 06:09:19;;;;;;;14.57;10.98;;;16.50;99.90;;;;;;5057268;28;20576;-73
2021/08/22 06:11:46;;;;;;;15.85;11.38;;;16.40;99.90;;;;;;5048821;28;20224;-73
2021/08/22 06:14:12;;;;;;;17.83;11.65;;;16.50;99.90;;;;;;5040193;28;20204;-73
2021/08/22 06:16:39;;;;;;;17.63;11.55;;;16.50;99.90;;;;;;5034313;28;20227;-73
2021/08/22 06:19:06;;;;;;;15.52;11.90;;;16.50;99.90;;;;;;5045211;28;20229;-73
2021/08/22 06:21:33;;;;;;;15.88;11.35;;;16.60;99.90;;;;;;5052653;28;20301;-73
2021/08/22 06:24:00;;;;;;;17.55;13.02;;;16.60;99.90;;;;;;5043046;28;20202;-73
2021/08/22 06:26:28;;;;;;;16.77;12.68;;;16.50;99.90;;;;;;5046247;28;20195;-73
2021/08/22 06:28:55;;;;;;;16.48;12.20;;;16.60;99.90;;;;;;5043083;28;20195;-73
2021/08/22 06:31:22;;;;;;;14.73;11.13;;;16.60;99.90;;;;;;5057533;28;20577;-74
2021/08/22 06:33:49;;;;;;;16.17;11.18;;;16.60;99.90;;;;;;5052146;28;20210;-74
2021/08/22 06:36:16;;;;;;;18.55;11.88;;;16.60;99.90;;;;;;5039770;28;20990;-73
2021/08/22 06:38:43;;;;;;;14.15;11.02;;;16.60;99.90;;;;;;5042978;28;20213;-74
2021/08/22 06:41:10;;;;;;;17.80;11.90;;;16.70;99.90;;;;;;5042229;28;20203;-74
2021/08/22 06:43:38;;;;;;;19.13;12.90;;;16.70;99.90;;;;;;5049284;28;20202;-73
2021/08/22 06:46:05;;;;;;;20.35;13.68;;;16.80;99.90;;;;;;5041073;28;20630;-73
2021/08/22 06:48:32;;;;;;;17.38;12.95;;;16.70;99.90;;;;;;5052081;28;20206;-75
2021/08/22 06:50:58;;;;;;;20.92;11.52;;;16.70;99.90;;;;;;5042712;28;20195;-74
2021/08/22 06:53:25;;;;;;;18.83;12.18;;;16.80;99.90;;;;;;5047677;28;20203;-74
2021/08/22 06:55:52;;;;;;;14.50;10.88;;;16.70;99.90;;;;;;5047109;28;20691;-74
2021/08/22 06:58:19;;;;;;;15.32;11.60;;;16.80;99.90;;;;;;5041730;28;20204;-74
2021/08/22 07:00:47;;;;;;;16.60;11.60;;;16.80;99.90;;;;;;5046229;28;20213;-74
2021/08/22 07:03:14;;;;;;;14.43;11.45;;;16.80;99.90;;;;;;5038414;28;20223;-74
2021/08/22 07:05:41;;;;;;;14.38;10.55;;;16.90;99.90;;;;;;5050776;28;20191;-74
2021/08/22 07:08:07;;;;;;;13.90;11.27;;;16.90;99.90;;;;;;5049176;28;21126;-74
2021/08/22 07:10:34;;;;;;;14.18;10.73;;;17.00;99.90;;;;;;5049709;28;20209;-74
2021/08/22 07:13:01;;;;;;;14.35;10.63;;;17.00;99.90;;;;;;5051739;28;20209;-74
2021/08/22 07:15:28;;;;;;;13.88;11.00;;;17.00;99.90;;;;;;5050390;28;20722;-74
2021/08/22 07:17:56;;;;;;;15.40;10.35;;;17.00;99.90;;;;;;5047335;28;20600;-75
2021/08/22 07:20:23;;;;;;;13.95;10.43;;;17.10;99.90;;;;;;5047002;28;20285;-75
2021/08/22 07:22:50;;;;;;;13.82;9.60;;;17.00;99.90;;;;;;5040507;28;20233;-75
2021/08/22 07:25:17;;;;;;;12.82;8.88;;;17.00;99.90;;;;;;5043776;28;20289;-75
2021/08/22 07:27:45;;;;;;;12.38;10.00;;;17.00;99.90;;;;;;5048245;28;20203;-75
2021/08/22 07:30:12;;;;;;;15.25;9.85;;;17.00;99.90;;;;;;5037409;28;20203;-74
2021/08/22 07:32:39;;;;;;;11.52;9.13;;;17.20;99.90;;;;;;5037857;28;20646;-75
2021/08/22 07:35:08;;;;;;;13.57;9.57;;;17.30;99.90;;;;;;5047834;28;20286;-75
2021/08/22 07:37:36;;;;;;;13.43;8.98;;;17.30;99.90;;;;;;5044488;28;20207;-75
2021/08/22 07:40:03;;;;;;;10.10;8.18;;;17.40;99.90;;;;;;5045096;28;20211;-75
2021/08/22 07:42:30;;;;;;;11.38;8.35;;;17.40;99.90;;;;;;5041810;28;20210;-73
2021/08/22 07:44:57;;;;;;;11.63;8.35;;;17.40;99.90;;;;;;5046042;28;20206;-75
2021/08/22 07:47:23;;;;;;;9.18;7.38;;;17.40;99.90;;;;;;5048376;28;20633;-75
2021/08/22 07:49:50;;;;;;;9.90;7.65;;;17.40;99.90;;;;;;5044426;28;20278;-75
2021/08/22 07:52:22;;;;;;;9.95;7.55;;;17.50;99.90;;;;;;5051146;28;20205;-75
2021/08/22 07:54:49;;;;;;;12.52;7.88;;;17.50;99.90;;;;;;5051459;28;20199;-75
2021/08/22 07:57:17;;;;;;;9.57;6.60;;;17.50;99.90;;;;;;5058314;28;20236;-75
2021/08/22 07:59:43;;;;;;;11.98;7.35;;;17.40;99.90;;;;;;5051592;28;20207;-75
2021/08/22 08:02:10;;;;;;;10.60;7.50;;;17.40;99.90;;;;;;5050124;28;20225;-75
2021/08/22 08:04:37;;;;;;;8.85;7.03;;;17.40;99.90;;;;;;5051292;28;20566;-75
2021/08/22 08:07:04;;;;;;;7.90;6.82;;;17.60;99.90;;;;;;5052012;28;20701;-75
2021/08/22 08:09:33;;;;;;;9.93;6.75;;;17.60;99.90;;;;;;5051726;28;20202;-75
2021/08/22 08:12:00;;;;;;;8.80;6.90;;;17.70;99.90;;;;;;5051388;28;20202;-75
2021/08/22 08:14:27;;;;;;;9.88;7.18;;;17.60;99.90;;;;;;5051791;28;20195;-75
2021/08/22 08:16:54;;;;;;;9.88;7.13;;;17.60;99.90;;;;;;5054384;28;20234;-75
2021/08/22 08:19:21;;;;;;;7.50;6.70;;;17.70;99.90;;;;;;5051997;28;20210;-75
2021/08/22 08:21:47;;;;;;;8.90;6.75;;;17.60;99.90;;;;;;5050742;28;20281;-75
2021/08/22 08:24:14;;;;;;;8.38;6.60;;;17.50;99.90;;;;;;5052178;28;20210;-74
2021/08/22 08:26:42;;;;;;;9.93;6.20;;;17.70;99.90;;;;;;5070396;22;20237;-79
2021/08/22 08:29:10;;;;;;;10.23;6.40;;;17.60;99.90;;;;;;5057985;28;20207;-80
2021/08/22 08:31:36;;;;;;;11.07;6.70;;;17.70;99.90;;;;;;5058854;28;20223;-81
2021/08/22 08:34:03;;;;;;;11.88;6.90;;;17.70;99.90;;;;;;5060998;28;20343;-80
2021/08/22 08:36:30;;;;;;;7.85;6.10;;;17.80;99.90;;;;;;5072889;22;20269;-87
2021/08/22 08:38:57;;;;;;;10.45;6.97;;;17.90;99.90;;;;;;5051013;28;20201;-87
2021/08/22 08:41:24;;;;;;;7.30;5.88;;;18.00;99.90;;;;;;5053992;28;20243;-88
2021/08/22 08:43:55;;;;;;;8.32;6.00;;;18.10;99.90;;;;;;5061090;28;20206;-88
2021/08/22 08:46:22;;;;;;;7.88;6.22;;;17.90;99.90;;;;;;5048053;28;20207;-87
2021/08/22 08:48:53;;;;;;;11.15;7.05;;;18.10;99.90;;;;;;5059344;28;20202;-89
2021/08/22 08:51:32;;;;;;;8.18;6.30;;;18.20;99.90;;;;;;5048871;28;20233;-89
2021/08/22 08:53:59;;;;;;;12.27;7.03;;;18.50;99.90;;;;;;5040489;28;20233;-88
2021/08/22 08:56:27;;;;;;;8.75;6.85;;;18.30;99.90;;;;;;5048547;28;20227;-88
2021/08/22 08:58:55;;;;;;;7.57;6.25;;;18.40;99.90;;;;;;5040064;28;20226;-88
2021/08/22 09:01:22;;;;;;;10.52;6.45;;;18.40;99.90;;;;;;5041432;28;20310;-88
2021/08/22 09:04:17;;;;;;;8.73;6.15;;;18.40;99.90;;;;;;5039997;28;20208;-88
2021/08/22 09:07:23;;;;;;;7.90;6.50;;;18.40;99.90;;;;;;5029905;28;20206;-88
2021/08/22 09:10:23;;;;;;;8.73;6.38;;;18.50;99.90;;;;;;5020678;28;20314;-87
2021/08/22 09:13:41;;;;;;;7.90;6.32;;;18.60;99.90;;;;;;5039457;28;20737;-87
2021/08/22 09:16:59;;;;;;;8.18;6.20;;;18.60;99.90;;;;;;5001026;28;20318;-87
2021/08/22 09:20:11;;;;;;;9.38;7.05;;;18.50;99.90;;;;;;5004612;28;20294;-88
2021/08/22 09:23:11;;;;;;;8.60;6.93;;;18.60;99.90;;;;;;5039680;28;20301;-88
2021/08/22 09:26:16;;;;;;;9.57;7.05;;;18.80;99.90;;;;;;5038770;28;20232;-87
2021/08/22 09:29:40;;;;;;;8.48;7.18;;;18.80;99.90;;;;;;5042696;28;20206;-88
2021/08/22 09:32:40;;;;;;;9.55;7.03;;;18.80;99.90;;;;;;5007883;28;20769;-88
2021/08/22 09:35:46;;;;;;;9.57;7.40;;;18.90;99.90;;;;;;5000775;28;20211;-89
2021/08/22 09:38:49;;;;;;;10.98;8.35;;;18.80;99.90;;;;;;5040659;28;20195;-88
2021/08/22 09:42:12;;;;;;;11.27;7.57;;;19.10;99.90;;;;;;5036722;28;20223;-88
2021/08/22 09:45:16;;;;;;;11.40;7.93;;;19.10;99.90;;;;;;5038924;28;20701;-87
2021/08/22 09:48:15;;;;;;;11.50;8.77;;;19.50;99.90;;;;;;5009495;28;20202;-88
2021/08/22 09:51:19;;;;;;;18.20;9.52;;;20.00;99.90;;;;;;5032287;28;20225;-88
2021/08/22 09:54:34;;;;;;;16.52;10.05;;;20.80;99.90;;;;;;5040698;28;20673;-87
2021/08/22 09:57:43;;;;;;;11.98;10.13;;;21.50;99.90;;;;;;5035411;28;20227;-89
2021/08/22 10:04:07;;;;;;;12.32;9.63;;;21.30;99.90;;;;;;4623885;22;20825;-79
2021/08/22 10:07:23;;;;;;;12.70;10.15;;;20.80;99.90;;;;;;5035054;28;20594;-80
2021/08/22 10:09:53;;;;;;;12.23;9.73;;;21.40;99.90;;;;;;4936542;29;20232;-79
2021/08/22 10:12:20;;;;;;;12.60;10.10;;;21.40;99.90;;;;;;5012708;28;20204;-78
2021/08/22 10:14:48;;;;;;;9.63;8.40;;;22.10;99.90;;;;;;5032904;28;20488;-80
2021/08/22 10:17:22;;;;;;;11.73;9.80;;;21.90;99.90;;;;;;5028687;28;20230;-79
2021/08/22 10:19:49;;;;;;;10.80;9.32;;;21.90;99.90;;;;;;5025620;28;20291;-81
2021/08/22 10:22:18;;;;;;;10.23;8.63;;;22.00;99.90;;;;;;5028854;28;20586;-80
2021/08/22 10:24:56;;;;;;;11.57;8.35;;;21.60;99.90;;;;;;5029982;28;20228;-80
2021/08/22 10:27:54;;;;;;;11.60;8.63;;;21.60;99.90;;;;;;5028197;28;20254;-79
2021/08/22 10:30:25;;;;;;;11.27;8.32;;;21.90;99.90;;;;;;4949591;29;20211;-78
2021/08/22 10:33:27;;;;;;;11.32;9.40;;;21.90;99.90;;;;;;5014920;28;20266;-78
2021/08/22 10:36:28;;;;;;;12.65;9.38;;;21.80;99.90;;;;;;5030103;28;20209;-80
2021/08/22 10:39:30;;;;;;;10.75;8.98;;;21.80;99.90;;;;;;5024692;28;20283;-78
2021/08/22 10:41:58;;;;;;;10.40;8.38;;;21.70;99.90;;;;;;5024614;28;20207;-79
2021/08/22 10:44:39;;;;;;;10.88;9.00;;;21.80;99.90;;;;;;5026902;28;20227;-79
2021/08/22 10:47:07;;;;;;;10.27;8.75;;;21.90;99.90;;;;;;5029780;28;20196;-79
2021/08/22 10:50:00;;;;;;;10.13;9.13;;;22.40;99.90;;;;;;5026643;28;20696;-78
2021/08/22 10:52:28;;;;;;;10.80;8.82;;;22.80;99.90;;;;;;5023495;28;20203;-78
2021/08/22 10:55:27;;;;;;;10.77;8.68;;;22.40;99.90;;;;;;5024151;28;20723;-78
2021/08/22 10:57:54;;;;;;;10.10;8.70;;;22.10;99.90;;;;;;5026568;28;20759;-78
2021/08/22 11:00:22;;;;;;;11.00;9.50;;;22.00;99.90;;;;;;5032768;28;20231;-78
2021/08/22 11:02:49;;;;;;;12.38;9.57;;;21.90;99.90;;;;;;5025137;28;20204;-78
2021/08/22 11:05:19;;;;;;;9.38;8.18;;;21.70;99.90;;;;;;5029383;28;20318;-78
2021/08/22 11:07:46;;;;;;;10.80;8.85;;;21.90;99.90;;;;;;5028631;28;20294;-79
2021/08/22 11:10:13;;;;;;;11.05;8.82;;;22.00;99.90;;;;;;5026846;28;20332;-79
2021/08/22 11:12:40;;;;;;;12.82;9.10;;;21.90;99.90;;;;;;5033200;28;20282;-80
2021/08/22 11:15:09;;;;;;;10.18;8.55;;;22.20;99.90;;;;;;5022941;28;20232;-76
2021/08/22 11:17:38;;;;;;;12.35;8.93;;;21.90;99.90;;;;;;5022547;28;20258;-78
2021/08/22 11:20:10;;;;;;;10.65;9.27;;;22.30;99.90;;;;;;5027880;28;20676;-78
2021/08/22 11:22:38;;;;;;;11.98;9.73;;;22.90;99.90;;;;;;5029264;28;20231;-79
2021/08/22 11:25:08;;;;;;;10.98;8.52;;;23.50;99.90;;;;;;5023511;28;20330;-78
2021/08/22 11:27:35;;;;;;;10.32;8.68;;;23.90;99.90;;;;;;5023243;28;20208;-79
2021/08/22 11:30:05;;;;;;;10.43;8.68;;;24.10;99.90;;;;;;5034202;28;20234;-79
2021/08/22 11:32:32;;;;;;;11.13;8.88;;;24.40;99.90;;;;;;5030485;28;20191;-80
2021/08/22 11:35:14;;;;;;;10.85;8.85;;;23.90;99.90;;;;;;5030252;28;20251;-79
2021/08/22 11:37:43;;;;;;;10.00;8.68;;;23.60;99.90;;;;;;5027556;28;20263;-79
2021/08/22 11:40:12;;;;;;;10.10;8.65;;;23.70;99.90;;;;;;5028639;28;20645;-80
2021/08/22 11:42:43;;;;;;;12.13;9.70;;;23.70;99.90;;;;;;5029395;28;20203;-81
2021/08/22 11:45:12;;;;;;;11.93;9.55;;;23.70;99.90;;;;;;5024913;28;20386;-81
2021/08/22 11:47:39;;;;;;;10.93;8.85;;;23.80;99.90;;;;;;5031621;28;20231;-79
2021/08/22 11:50:10;;;;;;;11.35;9.18;;;23.40;99.90;;;;;;5026381;28;20212;-78
2021/08/22 11:52:39;;;;;;;12.40;9.32;;;23.20;99.90;;;;;;5025674;28;20219;-79
2021/08/22 11:55:09;;;;;;;12.20;9.82;;;23.10;99.90;;;;;;5021489;28;20220;-79
2021/08/22 11:57:36;;;;;;;12.35;9.57;;;23.20;99.90;;;;;;5029307;28;20255;-77
2021/08/22 12:00:06;;;;;;;13.05;9.57;;;23.20;99.90;;;;;;5032515;28;20207;-78
2021/08/22 12:02:33;;;;;;;14.38;9.60;;;23.20;99.90;;;;;;5027545;28;20298;-78
2021/08/22 12:05:20;;;;;;;11.43;9.45;;;23.20;99.90;;;;;;5028280;28;20306;-78
2021/08/22 12:07:49;;;;;;;12.05;9.25;;;23.40;99.90;;;;;;5028707;28;20278;-78
2021/08/22 12:10:25;;;;;;;12.48;9.27;;;23.40;99.90;;;;;;5029378;28;20211;-78
2021/08/22 12:12:53;;;;;;;13.38;9.45;;;23.80;99.90;;;;;;5032690;28;20241;-78
2021/08/22 12:15:29;;;;;;;11.25;9.15;;;23.80;99.90;;;;;;5028215;28;20223;-78
2021/08/22 12:18:17;;;;;;;12.88;9.68;;;24.10;99.90;;;;;;5031474;28;20430;-78
2021/08/22 12:20:45;;;;;;;11.88;9.60;;;24.30;99.90;;;;;;5026044;28;20709;-78
2021/08/22 12:23:13;;;;;;;12.63;10.25;;;24.50;99.90;;;;;;5029547;28;20677;-78
2021/08/22 12:25:42;;;;;;;12.48;10.10;;;24.10;99.90;;;;;;5027032;28;20203;-77
2021/08/22 12:28:24;;;;;;;11.57;9.90;;;24.60;99.90;;;;;;5025106;28;20635;-79
2021/08/22 12:31:03;;;;;;;12.07;9.52;;;24.40;99.90;;;;;;5032666;28;20208;-79
2021/08/22 12:33:31;;;;;;;12.85;10.15;;;24.00;99.90;;;;;;5033343;28;20572;-79
2021/08/22 12:36:14;;;;;;;12.98;10.95;;;23.60;99.90;;;;;;5036213;28;20258;-78
2021/08/22 12:38:45;;;;;;;13.05;10.38;;;23.60;99.90;;;;;;5036036;28;20234;-80
2021/08/22 12:41:33;;;;;;;12.32;10.25;;;23.50;99.90;;;;;;5030420;28;20227;-79
2021/08/22 12:44:03;;;;;;;13.60;10.77;;;23.50;99.90;;;;;;5033144;28;20228;-78
2021/08/22 12:46:32;;;;;;;14.55;10.32;;;23.50;99.90;;;;;;5025513;28;20306;-79
2021/08/22 12:48:59;;;;;;;16.42;11.75;;;23.70;99.90;;;;;;5028850;28;20196;-77
2021/08/22 12:51:27;;;;;;;15.18;11.82;;;23.60;99.90;;;;;;5031843;28;20199;-78
2021/08/22 12:53:55;;;;;;;14.43;11.55;;;23.50;99.90;;;;;;5032637;28;20246;-77
2021/08/22 12:56:22;;;;;;;13.63;11.18;;;23.80;99.90;;;;;;5031213;28;20269;-77
2021/08/22 12:58:52;;;;;;;14.52;12.18;;;23.60;99.90;;;;;;5024043;28;20229;-77
2021/08/22 13:01:20;;;;;;;14.95;11.20;;;23.40;99.90;;;;;;5026207;28;20204;-78